Flight Track Log - Related Links

Times and Time Zones

All times are in EST time to prevent confusion due to time zone crossing. See the BWA520 flight status page for this flight to view local times or setup timezone preferences in your user account.

Time Position Orientation Groundspeed Altitude Reporting Facility
EST Latitude Longitude Course Direction KTS MPH feet Rate Location/Type
Sat 12:07:00 AM 11.1225 -61.5686 337° Northwest  Level FlightAware Approximate
Sat 12:08:00 AM 11.2279 -61.6150 337° Northwest  Level FlightAware Approximate
Sat 12:09:00 AM 11.3333 -61.6614 337° Northwest  Level FlightAware Approximate
Sat 12:10:00 AM 11.4386 -61.7079 337° Northwest  Level FlightAware Approximate
Sat 12:11:00 AM 11.5440 -61.7543 337° Northwest  Level FlightAware Approximate
Sat 12:12:00 AM 11.6553 -61.7910 342° North  Level Estimated
Sat 12:13:00 AM 11.7666 -61.8278 342° North  Level Estimated
Sat 12:14:00 AM 11.8779 -61.8645 342° North  Level Estimated
Sat 12:15:00 AM 11.9892 -61.9013 342° North  Level Estimated
Sat 12:16:00 AM 12.1004 -61.9381 342° North  Level Estimated
Sat 12:17:00 AM 12.2117 -61.9749 342° North  Level Estimated
Sat 12:18:00 AM 12.3230 -62.0118 342° North  Level Estimated
Sat 12:19:00 AM 12.4342 -62.0487 342° North  Level Estimated
Sat 12:20:00 AM 12.5455 -62.0856 342° North  Level Estimated
Sat 12:21:00 AM 12.6567 -62.1226 342° North  Level Estimated
Sat 12:22:00 AM 12.7680 -62.1596 342° North  Level Estimated
Sat 12:23:00 AM 12.8792 -62.1966 342° North  Level Estimated
Sat 12:24:00 AM 12.9904 -62.2337 342° North  Level Estimated
Sat 12:25:00 AM 13.1017 -62.2708 342° North  Level Estimated
Sat 12:26:00 AM 13.2129 -62.3079 342° North  Level Estimated
Sat 12:27:00 AM 13.3241 -62.3451 342° North  Level Estimated
Sat 12:28:00 AM 13.4353 -62.3823 342° North  Level Estimated
Sat 12:29:00 AM 13.5465 -62.4195 342° North  Level Estimated
Sat 12:30:00 AM 13.6577 -62.4568 342° North  Level Estimated
Sat 12:31:00 AM 13.7689 -62.4941 342° North  Level Estimated
Sat 12:32:00 AM 13.8801 -62.5314 342° North  Level Estimated
Sat 12:33:00 AM 13.9913 -62.5688 342° North  Level Estimated
Sat 12:34:00 AM 14.1025 -62.6062 342° North  Level Estimated
Sat 12:35:00 AM 14.2136 -62.6437 342° North  Level Estimated
Sat 12:36:00 AM 14.3248 -62.6812 342° North  Level Estimated
Sat 12:37:00 AM 14.4360 -62.7187 342° North  Level Estimated
Sat 12:38:00 AM 14.5471 -62.7563 342° North  Level Estimated
Sat 12:39:00 AM 14.6583 -62.7939 342° North  Level Estimated
Sat 12:40:00 AM 14.7694 -62.8315 342° North  Level Estimated
Sat 12:41:00 AM 14.8805 -62.8692 342° North  Level Estimated
Sat 12:42:00 AM 14.9917 -62.9069 342° North  Level Estimated
Sat 12:43:00 AM 15.1028 -62.9446 342° North  Level Estimated
Sat 12:44:00 AM 15.2139 -62.9824 342° North  Level Estimated
Sat 12:45:00 AM 15.3250 -63.0202 342° North  Level Estimated
Sat 12:46:00 AM 15.4361 -63.0581 342° North  Level Estimated
Sat 12:47:00 AM 15.5472 -63.0960 342° North  Level Estimated
Sat 12:48:00 AM 15.6583 -63.1340 342° North  Level Estimated
Sat 12:49:00 AM 15.7694 -63.1720 342° North  Level Estimated
Sat 12:49:21 AM 14.8833 -64.0500 342° North 430 495 36,000  Level San Juan Center
Sat 12:50:00 AM 15.8805 -63.2100 342° North  Level Estimated
Sat 12:50:21 AM 14.9833 -64.1167 327° Northwest 430 495 36,000  Level San Juan Center
Sat 12:51:00 AM 15.9915 -63.2481 342° North  Level Estimated
Sat 12:51:21 AM 15.0833 -64.2000 321° Northwest 440 506 36,000  Level San Juan Center
Sat 12:52:00 AM 16.1026 -63.2862 342° North  Level Estimated
Sat 12:52:22 AM 15.1833 -64.2667 327° Northwest 430 495 36,000  Level San Juan Center
Sat 12:53:00 AM 16.2137 -63.3244 342° North  Level Estimated
Sat 12:53:22 AM 15.2833 -64.3167 334° Northwest 440 506 36,000  Level San Juan Center
Sat 12:54:00 AM 16.3247 -63.3626 342° North  Level Estimated
Sat 12:54:22 AM 15.3833 -64.3833 327° Northwest 440 506 36,000  Level San Juan Center
Sat 12:55:22 AM 15.5000 -64.4333 338° Northwest 430 495 36,000  Level San Juan Center
Sat 12:56:22 AM 15.6167 -64.4833 338° Northwest 430 495 36,000  Level San Juan Center
Sat 12:57:22 AM 15.7333 -64.5167 345° North 430 495 36,000  Level San Juan Center
Sat 12:58:23 AM 15.8333 -64.5667 334° Northwest 430 495 36,000  Level San Juan Center
Sat 12:59:23 AM 15.9500 -64.6333 331° Northwest 420 483 36,000  Level San Juan Center
Sat 01:00:23 AM 16.0500 -64.6833 334° Northwest 420 483 36,000  Level San Juan Center
Sat 01:01:23 AM 16.1667 -64.7167 345° North 430 495 36,000  Level San Juan Center
Sat 01:02:23 AM 16.2667 -64.7667 334° Northwest 430 495 36,000  Level San Juan Center
Sat 01:03:23 AM 16.3833 -64.8167 338° Northwest 430 495 36,000  Level San Juan Center
Sat 01:04:23 AM 16.5000 -64.8667 338° Northwest 430 495 36,000  Level San Juan Center
Sat 01:05:24 AM 16.6167 -64.9167 338° Northwest 440 506 36,000  Level San Juan Center
Sat 01:06:24 AM 16.7167 -64.9667 334° Northwest 440 506 36,000  Level San Juan Center
Sat 01:07:24 AM 16.8333 -65.0167 338° Northwest 440 506 36,000  Level San Juan Center
Sat 01:08:24 AM 16.9500 -65.0667 338° Northwest 440 506 36,000  Level San Juan Center
Sat 01:09:24 AM 17.0667 -65.1167 338° Northwest 440 506 36,000  Level San Juan Center
Sat 01:10:24 AM 17.1667 -65.1667 334° Northwest 430 495 36,000  Level San Juan Center
Sat 01:11:24 AM 17.2833 -65.2167 338° Northwest 430 495 36,000  Level San Juan Center
Sat 01:12:24 AM 17.3833 -65.2667 334° Northwest 430 495 36,000  Level San Juan Center
Sat 01:13:25 AM 17.5000 -65.3167 338° Northwest 430 495 36,000  Level San Juan Center
Sat 01:14:25 AM 17.6167 -65.3667 338° Northwest 420 483 36,000  Level San Juan Center
Sat 01:15:25 AM 17.7333 -65.4167 338° Northwest 430 495 36,000  Level San Juan Center
Sat 01:16:25 AM 17.8333 -65.4667 335° Northwest 420 483 36,000  Level San Juan Center
Sat 01:17:25 AM 17.9333 -65.5167 335° Northwest 430 495 36,000  Level San Juan Center
Sat 01:18:25 AM 18.0500 -65.5667 338° Northwest 430 495 36,000  Level San Juan Center
Sat 01:19:25 AM 18.1500 -65.6000 342° North 420 483 36,000  Level San Juan Center
Sat 01:20:25 AM 18.2667 -65.6500 338° Northwest 430 495 36,000  Level San Juan Center
Sat 01:21:25 AM 18.3833 -65.7000 338° Northwest 420 483 36,000  Level San Juan Center
Sat 01:22:26 AM 18.4833 -65.7500 335° Northwest 420 483 36,000  Level San Juan Center
Sat 01:23:26 AM 18.6000 -65.8000 338° Northwest 430 495 36,000  Level San Juan Center
Sat 01:24:26 AM 18.7167 -65.8500 338° Northwest 420 483 36,000  Level San Juan Center
Sat 01:25:26 AM 18.8167 -65.9000 335° Northwest 420 483 36,000  Level San Juan Center
Sat 01:26:26 AM 18.9167 -65.9500 335° Northwest 430 495 36,000  Level San Juan Center
Sat 01:27:26 AM 19.0333 -66.0000 338° Northwest 420 483 36,000  Level San Juan Center
Sat 01:28:26 AM 19.1333 -66.0500 335° Northwest 420 483 36,000  Level San Juan Center
Sat 01:29:27 AM 19.2333 -66.1000 335° Northwest 400 460 36,000  Level San Juan Center
Sat 01:30:27 AM 19.3500 -66.1333 345° North 410 472 36,000  Level San Juan Center
Sat 01:31:26 AM 19.4500 -66.1833 335° Northwest 410 472 36,000  Level San Juan Center
Sat 01:32:27 AM 19.5500 -66.2333 335° Northwest 400 460 36,000  Level San Juan Center
Sat 01:33:27 AM 19.6500 -66.2833 335° Northwest 410 472 36,000  Level San Juan Center
Sat 01:34:27 AM 19.7667 -66.3333 338° Northwest 410 472 36,000  Level San Juan Center
Sat 01:35:27 AM 19.8667 -66.3833 335° Northwest 410 472 36,000  Level San Juan Center
Sat 01:36:27 AM 19.9667 -66.4333 335° Northwest 400 460 36,000  Level San Juan Center
Sat 01:37:27 AM 20.0833 -66.4833 338° Northwest 410 472 36,000  Level San Juan Center
Sat 01:38:27 AM 20.1833 -66.5167 343° North 410 472 36,000  Level San Juan Center
Sat 01:39:28 AM 20.2833 -66.5667 335° Northwest 400 460 36,000  Level San Juan Center
Sat 01:40:28 AM 20.3833 -66.6167 335° Northwest 410 472 36,000  Level San Juan Center
Sat 01:41:28 AM 20.5000 -66.6667 338° Northwest 410 472 36,000  Level San Juan Center
Sat 01:42:28 AM 20.6000 -66.7167 335° Northwest 400 460 36,000  Level San Juan Center
Sat 01:43:28 AM 20.7000 -66.7667 335° Northwest 410 472 36,000  Level San Juan Center
Sat 01:44:28 AM 20.8000 -66.8167 335° Northwest 410 472 36,000  Level San Juan Center
Sat 01:45:29 AM 20.9167 -66.8667 338° Northwest 410 472 36,000 50 Level San Juan Center
Sat 01:46:29 AM 21.0167 -66.9167 335° Northwest 410 472 36,100  Climbing San Juan Center
Sat 01:47:29 AM 21.1167 -66.9667 335° Northwest 410 472 36,000  Descending San Juan Center
Sat 01:48:29 AM 21.2167 -67.0167 335° Northwest 410 472 36,100 450 Climbing San Juan Center
Sat 01:49:29 AM 21.3333 -67.0500 345° North 400 460 36,900 750 Climbing San Juan Center
Sat 01:50:29 AM 21.4333 -67.1000 335° Northwest 400 460 37,600 550 Climbing San Juan Center
Sat 01:51:29 AM 21.5333 -67.1500 335° Northwest 400 460 38,000 198 Climbing San Juan Center
Sat 01:52:30 AM 21.6333 -67.2000 335° Northwest 410 472 38,000  Level San Juan Center
Sat 01:53:30 AM 21.7500 -67.2167 352° North 420 483 38,000  Level San Juan Center
Sat 01:54:05 AM 21.6167 -67.2000 349° North 443 510 38,000  Level New York Oceanic (ODAPS)
Sat 01:59:25 AM 22.2333 -67.3167 349° North 423 487 38,000  Level New York Oceanic (ODAPS)
Sat 02:30:46 AM 25.4667 -68.0000 349° North 409 471 38,000  Level New York Oceanic (ODAPS)
Sat 02:49:45 AM 27.9333 -68.5333 349° North 433 498 38,000  Level New York Oceanic (ODAPS)
Sat 03:14:09 AM 30.9000 -69.2333 349° North 439 505 38,000 Level New York Oceanic (ODAPS)
Sat 04:10:43 AM 37.6706 -71.0372 330° Northwest 446 513 38,100  Climbing New York Center
Sat 04:11:00 AM 37.8114 -71.0532 330° Northwest 439 505 38,000  Descending FlightAware Transoceanic
Sat 04:11:43 AM 37.7642 -71.1111 328° Northwest 412 474 38,100  Climbing New York Center
Sat 04:12:00 AM 37.9061 -71.1232 330° Northwest 439 505 38,000  Descending FlightAware Transoceanic
Sat 04:12:43 AM 37.8556 -71.1958 324° Northwest 412 474 38,100  Climbing New York Center
Sat 04:13:00 AM 38.0008 -71.1934 330° Northwest 439 505 38,000  Descending FlightAware Transoceanic
Sat 04:13:43 AM 37.9492 -71.2781 325° Northwest 412 474 38,100  Climbing New York Center
Sat 04:14:00 AM 38.0954 -71.2637 330° Northwest 439 505 38,000  Descending FlightAware Transoceanic
Sat 04:14:43 AM 38.0383 -71.3553 326° Northwest 406 467 38,100  Climbing New York Center
Sat 04:15:00 AM 38.1900 -71.3343 330° Northwest 439 505 38,000  Descending FlightAware Transoceanic
Sat 04:15:43 AM 38.1256 -71.4431 322° Northwest 406 467 38,100 58 Climbing New York Center
Sat 04:16:43 AM 38.2189 -71.5181 328° Northwest 406 467 38,100  Level New York Center
Sat 04:17:43 AM 38.3122 -71.5983 326° Northwest 406 467 38,100  Level New York Center
Sat 04:18:43 AM 38.4033 -71.6817 324° Northwest 406 467 38,100  Level New York Center
Sat 04:19:43 AM 38.4922 -71.7625 325° Northwest 406 467 38,100  Level New York Center
Sat 04:20:43 AM 38.5833 -71.8514 323° Northwest 406 467 38,100  Level New York Center
Sat 04:21:43 AM 38.6722 -71.9272 326° Northwest 401 461 38,100  Level New York Center
Sat 04:22:43 AM 38.7608 -72.0111 324° Northwest 401 461 38,100  Level New York Center
Sat 04:23:43 AM 38.8517 -72.0928 325° Northwest 401 461 38,100 -1,050 Level New York Center
Sat 04:24:43 AM 38.9383 -72.1692 326° Northwest 401 461 36,000 -2,100 Descending New York Center
Sat 04:25:43 AM 39.0250 -72.2483 325° Northwest 395 455 33,900 -2,050 Descending New York Center
Sat 04:26:43 AM 39.1075 -72.3250 324° Northwest 378 435 31,900 -1,950 Descending New York Center
Sat 04:27:43 AM 39.1856 -72.4019 323° Northwest 366 421 30,000 -1,850 Descending New York Center
Sat 04:28:43 AM 39.2658 -72.4733 325° Northwest 360 414 28,200 -1,800 Descending New York Center
Sat 04:29:43 AM 39.3419 -72.5450 324° Northwest 348 400 26,400 -1,750 Descending New York Center
Sat 04:30:43 AM 39.4139 -72.6114 325° Northwest 332 382 24,700 -1,700 Descending New York Center
Sat 04:31:43 AM 39.4836 -72.6750 325° Northwest 326 375 23,000 -1,600 Descending New York Center
Sat 04:32:43 AM 39.5514 -72.7417 323° Northwest 307 353 21,500 -1,550 Descending New York Center
Sat 04:33:43 AM 39.6169 -72.8056 323° Northwest 302 348 19,900 -1,550 Descending New York Center
Sat 04:34:43 AM 39.6806 -72.8639 325° Northwest 297 342 18,400 -1,450 Descending New York Center
Sat 04:35:43 AM 39.7461 -72.9281 323° Northwest 291 335 17,000 -1,500 Descending New York Center
Sat 04:36:43 AM 39.8136 -72.9897 325° Northwest 291 335 15,400 -1,650 Descending New York Center
Sat 04:37:43 AM 39.8772 -73.0511 323° Northwest 291 335 13,700 -1,650 Descending New York Center
Sat 04:38:43 AM 39.9428 -73.1100 325° Northwest 291 335 12,100 -1,550 Descending New York Center
Sat 04:39:43 AM 40.0039 -73.1664 325° Northwest 286 329 10,600 -1,350 Descending New York Center
Sat 04:40:43 AM 40.0633 -73.2228 324° Northwest 273 314 9,400 -1,150 Descending New York Center
Sat 04:41:43 AM 40.1164 -73.2761 322° Northwest 259 298 8,300 -1,150 Descending New York Center
Sat 04:42:43 AM 40.1756 -73.3328 324° Northwest 259 298 7,100 -600 Descending New York Center
Sat 04:43:43 AM 40.2417 -73.3569 344° North 253 291 7,100  Level New York Center
Sat 04:44:43 AM 40.3122 -73.3731 350° North 253 291 7,100  Level New York Center
Sat 04:45:43 AM 40.3806 -73.3894 350° North 253 291 7,100 -600 Level New York Center
Sat 04:46:43 AM 40.4403 -73.4272 334° Northwest 243 280 5,900 -1,200 Descending New York Center
Sat 04:47:43 AM 40.4994 -73.4731 330° Northwest 243 280 4,700 -1,150 Descending New York Center
Sat 04:48:43 AM 40.5439 -73.5403 311° West 248 285 3,600 -900 Descending New York Center
Sat 04:49:43 AM 40.5675 -73.5958 299° West 222 255 2,900 -750 Descending New York Center
Sat 04:50:43 AM 40.5933 -73.6489 303° West 171 197 2,100 -800 Descending New York Center
Sat 04:51:43 AM 40.6111 -73.6881 301° West 150 173 1,300 -800 Descending New York Center
Sat 04:52:43 AM 40.6328 -73.7381 300° West 139 160 500 -450 Descending New York Center
Sat 04:53:43 AM 40.6506 -73.7744 303° West 139 160 400 3,250 Descending New York Center
Sat 04:54:43 AM 40.6703 -73.8164 302° West 139 160 7,000 3,300 Climbing New York Center
Sat 04:55:43 AM 40.6900 -73.8583 302° West 139 160 7,000  Level New York Center
Sat 04:57:00 AM 40.6398 -73.7789 130° Southeast  Level Estimated
Sat 05:04:00 AM 40.6398 -73.7789 72° East  Level Estimated
Sat 05:05:00 AM 40.6398 -73.7789 72° East  Level Estimated
Sat 05:06:00 AM 40.6398 -73.7789 72° East  Level Estimated

Login

Don't have an account? Register now (free) for customized features, flight alerts, and more!